sensor_id;sensor_type;location;lat;lon;timestamp;P1;P2;P0
70520;PMS5003;58442;52.716;23.560;2023-07-13T01:56:09;28;27;20
70520;PMS5003;58442;52.716;23.560;2023-07-13T01:58:10;37;34;22
70520;PMS5003;58442;52.716;23.560;2023-07-13T02:00:13;32;30;19
70520;PMS5003;58442;52.716;23.560;2023-07-13T02:02:15;40;36;23
70520;PMS5003;58442;52.716;23.560;2023-07-13T02:04:16;31;29;21
70520;PMS5003;58442;52.716;23.560;2023-07-13T02:06:18;33;30;19
70520;PMS5003;58442;52.716;23.560;2023-07-13T02:08:28;20;20;16
70520;PMS5003;58442;52.716;23.560;2023-07-13T02:10:29;26;26;18
70520;PMS5003;58442;52.716;23.560;2023-07-13T06:04:46;13;13;9
70520;PMS5003;58442;52.716;23.560;2023-07-13T06:06:48;13;13;11
70520;PMS5003;58442;52.716;23.560;2023-07-13T06:08:50;11;11;9
70520;PMS5003;58442;52.716;23.560;2023-07-13T06:10:52;9;9;7
70520;PMS5003;58442;52.716;23.560;2023-07-13T06:12:53;11;11;9
70520;PMS5003;58442;52.716;23.560;2023-07-13T06:14:55;8;8;8
70520;PMS5003;58442;52.716;23.560;2023-07-13T06:17:05;9;9;8
70520;PMS5003;58442;52.716;23.560;2023-07-13T06:19:06;6;6;5
70520;PMS5003;58442;52.716;23.560;2023-07-13T06:21:12;9;9;8
70520;PMS5003;58442;52.716;23.560;2023-07-13T06:23:16;12;12;8
70520;PMS5003;58442;52.716;23.560;2023-07-13T06:25:20;10;10;9
70520;PMS5003;58442;52.716;23.560;2023-07-13T06:27:21;11;11;9
70520;PMS5003;58442;52.716;23.560;2023-07-13T06:29:23;9;9;8
70520;PMS5003;58442;52.716;23.560;2023-07-13T06:31:24;11;11;8
70520;PMS5003;58442;52.716;23.560;2023-07-13T06:33:34;13;13;9
70520;PMS5003;58442;52.716;23.560;2023-07-13T06:35:37;11;11;8
70520;PMS5003;58442;52.716;23.560;2023-07-13T06:37:38;10;10;8
70520;PMS5003;58442;52.716;23.560;2023-07-13T06:39:40;11;11;10
70520;PMS5003;58442;52.716;23.560;2023-07-13T06:41:49;13;13;11
70520;PMS5003;58442;52.716;23.560;2023-07-13T06:43:50;11;11;8
70520;PMS5003;58442;52.716;23.560;2023-07-13T06:45:54;10;10;8
70520;PMS5003;58442;52.716;23.560;2023-07-13T06:47:56;11;11;10
70520;PMS5003;58442;52.716;23.560;2023-07-13T06:50:04;10;10;8
70520;PMS5003;58442;52.716;23.560;2023-07-13T06:52:06;12;12;10
70520;PMS5003;58442;52.716;23.560;2023-07-13T06:54:07;8;8;7
70520;PMS5003;58442;52.716;23.560;2023-07-13T06:56:09;10;10;10
70520;PMS5003;58442;52.716;23.560;2023-07-13T06:58:19;8;8;6
70520;PMS5003;58442;52.716;23.560;2023-07-13T07:00:21;11;11;9
70520;PMS5003;58442;52.716;23.560;2023-07-13T07:02:22;9;9;8
70520;PMS5003;58442;52.716;23.560;2023-07-13T07:04:24;10;10;9
70520;PMS5003;58442;52.716;23.560;2023-07-13T07:06:33;11;11;10
70520;PMS5003;58442;52.716;23.560;2023-07-13T07:08:35;7;7;6
70520;PMS5003;58442;52.716;23.560;2023-07-13T07:10:36;11;11;9
70520;PMS5003;58442;52.716;23.560;2023-07-13T07:12:38;8;8;6
70520;PMS5003;58442;52.716;23.560;2023-07-13T07:14:48;7;7;7
70520;PMS5003;58442;52.716;23.560;2023-07-13T07:16:49;9;9;7
70520;PMS5003;58442;52.716;23.560;2023-07-13T07:18:51;10;10;8
70520;PMS5003;58442;52.716;23.560;2023-07-13T07:21:18;7;7;5
70520;PMS5003;58442;52.716;23.560;2023-07-13T07:23:20;10;10;8
70520;PMS5003;58442;52.716;23.560;2023-07-13T07:25:21;9;9;7
70520;PMS5003;58442;52.716;23.560;2023-07-13T07:27:33;10;10;8
70520;PMS5003;58442;52.716;23.560;2023-07-13T07:29:34;10;9;8
70520;PMS5003;58442;52.716;23.560;2023-07-13T07:31:36;9;9;8
70520;PMS5003;58442;52.716;23.560;2023-07-13T07:33:38;10;10;9
70520;PMS5003;58442;52.716;23.560;2023-07-13T07:35:48;12;12;10
70520;PMS5003;58442;52.716;23.560;2023-07-13T07:37:49;10;10;8
70520;PMS5003;58442;52.716;23.560;2023-07-13T07:39:51;10;10;8
70520;PMS5003;58442;52.716;23.560;2023-07-13T07:41:53;8;8;6
70520;PMS5003;58442;52.716;23.560;2023-07-13T07:44:02;11;11;10
70520;PMS5003;58442;52.716;23.560;2023-07-13T07:46:04;10;10;9
70520;PMS5003;58442;52.716;23.560;2023-07-13T07:48:06;8;8;7
70520;PMS5003;58442;52.716;23.560;2023-07-13T07:50:10;8;8;6
70520;PMS5003;58442;52.716;23.560;2023-07-13T07:52:17;7;7;5
70520;PMS5003;58442;52.716;23.560;2023-07-13T07:54:18;8;8;8
70520;PMS5003;58442;52.716;23.560;2023-07-13T07:56:20;9;9;8
70520;PMS5003;58442;52.716;23.560;2023-07-13T07:58:21;9;9;9
70520;PMS5003;58442;52.716;23.560;2023-07-13T08:00:32;10;10;9
70520;PMS5003;58442;52.716;23.560;2023-07-13T08:02:33;11;11;8
70520;PMS5003;58442;52.716;23.560;2023-07-13T08:04:35;9;9;8
70520;PMS5003;58442;52.716;23.560;2023-07-13T08:06:36;11;11;10
70520;PMS5003;58442;52.716;23.560;2023-07-13T10:23:55;4;4;3
70520;PMS5003;58442;52.716;23.560;2023-07-13T10:26:06;6;6;5
70520;PMS5003;58442;52.716;23.560;2023-07-13T10:30:28;3;3;3
70520;PMS5003;58442;52.716;23.560;2023-07-13T10:32:39;5;5;4
70520;PMS5003;58442;52.716;23.560;2023-07-13T10:34:41;4;4;3
70520;PMS5003;58442;52.716;23.560;2023-07-13T10:36:47;4;4;3
70520;PMS5003;58442;52.716;23.560;2023-07-13T10:38:50;5;5;5
70520;PMS5003;58442;52.716;23.560;2023-07-13T10:40:58;5;5;4
70520;PMS5003;58442;52.716;23.560;2023-07-13T10:43:25;4;4;4
70520;PMS5003;58442;52.716;23.560;2023-07-13T10:45:22;3;3;3
70520;PMS5003;58442;52.716;23.560;2023-07-13T10:47:25;4;4;3
70520;PMS5003;58442;52.716;23.560;2023-07-13T10:49:28;3;3;3
70520;PMS5003;58442;52.716;23.560;2023-07-13T10:51:31;3;3;3
70520;PMS5003;58442;52.716;23.560;2023-07-13T16:04:53;3;3;2
